Time;durP1;ratioP1;P1;durP2;ratioP2;P2;SDS_P1;SDS_P2;PMS_P1;PMS_P2;Temp;Humidity;BMP_temperature;BMP_pressure;BME280_temperature;BME280_humidity;BME280_pressure;Samples;Min_cycle;Max_cycle;Signal;HPM_P1;HPM_P2
2023/10/01 00:01:51;;;;;;;7.37;3.00;;;14.80;99.90;;;;;;5056905;28;20514;-70
2023/10/01 00:04:18;;;;;;;6.30;3.07;;;14.80;99.90;;;;;;5062940;28;20815;-69
2023/10/01 00:06:44;;;;;;;12.30;3.57;;;14.90;99.90;;;;;;5058957;28;20466;-70
2023/10/01 00:09:09;;;;;;;4.13;3.07;;;14.90;99.90;;;;;;5046676;28;20210;-68
2023/10/01 00:11:39;;;;;;;4.60;2.70;;;14.90;99.90;;;;;;5043169;28;20171;-69
2023/10/01 00:14:08;;;;;;;7.73;3.00;;;14.90;99.90;;;;;;5026568;28;20186;-69
2023/10/01 00:16:37;;;;;;;6.97;3.37;;;14.90;99.90;;;;;;5057372;28;20930;-70
2023/10/01 00:19:03;;;;;;;6.40;2.77;;;14.90;99.90;;;;;;5066388;28;20959;-68
2023/10/01 00:21:29;;;;;;;7.07;2.77;;;14.90;99.90;;;;;;5067121;28;20424;-70
2023/10/01 00:23:54;;;;;;;5.57;3.20;;;14.80;99.90;;;;;;5028596;28;20432;-70
2023/10/01 00:26:21;;;;;;;5.30;2.60;;;14.80;99.90;;;;;;5045261;28;20515;-69
2023/10/01 00:28:49;;;;;;;3.73;2.37;;;14.80;99.90;;;;;;5046577;28;20223;-71
2023/10/01 00:31:16;;;;;;;4.70;3.00;;;14.80;99.90;;;;;;5019275;28;20411;-70
2023/10/01 00:33:43;;;;;;;3.60;2.73;;;14.80;99.90;;;;;;5067215;28;20457;-69
2023/10/01 00:36:09;;;;;;;5.40;2.77;;;14.80;99.90;;;;;;5051820;28;20517;-69
2023/10/01 00:38:35;;;;;;;4.20;2.40;;;14.80;99.90;;;;;;5062927;28;20530;-69
2023/10/01 00:41:01;;;;;;;4.90;2.60;;;14.80;99.90;;;;;;5056413;28;20195;-70
2023/10/01 00:43:30;;;;;;;4.00;2.63;;;14.70;99.90;;;;;;5029772;28;20791;-69
2023/10/01 00:45:56;;;;;;;3.90;2.30;;;14.80;99.90;;;;;;5028082;28;20435;-69
2023/10/01 00:48:23;;;;;;;10.43;3.80;;;14.80;99.90;;;;;;5043439;28;20509;-68
2023/10/01 00:50:54;;;;;;;9.10;2.87;;;14.70;99.90;;;;;;5064910;28;20413;-70
2023/10/01 00:53:20;;;;;;;5.57;2.87;;;14.70;99.90;;;;;;5037574;28;20415;-69
2023/10/01 00:55:48;;;;;;;4.67;2.20;;;14.70;99.90;;;;;;5063204;28;20435;-69
2023/10/01 00:58:18;;;;;;;4.10;2.93;;;14.80;99.90;;;;;;5042568;28;20477;-67
2023/10/01 01:00:45;;;;;;;4.20;2.57;;;14.80;99.90;;;;;;5044602;28;20893;-68
2023/10/01 01:03:18;;;;;;;5.10;2.70;;;14.70;99.90;;;;;;5067480;28;20422;-69
2023/10/01 01:06:03;;;;;;;4.00;2.83;;;14.80;99.90;;;;;;5049592;28;20424;-68
2023/10/01 01:08:33;;;;;;;5.87;2.87;;;14.80;99.90;;;;;;5060155;28;20536;-68
2023/10/01 01:11:03;;;;;;;6.57;3.10;;;14.70;99.90;;;;;;5065693;28;20860;-71
2023/10/01 01:13:30;;;;;;;4.40;2.77;;;14.80;99.90;;;;;;5048271;28;20502;-70
2023/10/01 01:15:57;;;;;;;9.47;2.90;;;14.80;99.90;;;;;;5060922;28;20418;-68
2023/10/01 01:18:27;;;;;;;5.50;3.00;;;14.80;99.90;;;;;;5051717;28;20458;-68
2023/10/01 01:20:58;;;;;;;6.30;3.20;;;14.80;99.90;;;;;;5063715;28;20411;-68
2023/10/01 01:23:24;;;;;;;6.63;3.30;;;14.80;99.90;;;;;;5058176;28;20496;-68
2023/10/01 01:25:52;;;;;;;9.10;2.83;;;14.70;99.90;;;;;;5069419;28;20907;-69
2023/10/01 01:28:25;;;;;;;3.73;2.70;;;14.70;99.90;;;;;;5063972;28;20187;-70
2023/10/01 01:30:52;;;;;;;6.27;3.77;;;14.70;99.90;;;;;;5060896;28;20397;-69
2023/10/01 01:33:21;;;;;;;5.13;3.33;;;14.70;99.90;;;;;;5070467;28;20420;-69
2023/10/01 01:35:50;;;;;;;6.90;3.33;;;14.70;99.90;;;;;;5053367;28;20421;-69
2023/10/01 01:38:16;;;;;;;4.63;3.10;;;14.70;99.90;;;;;;5065539;28;20798;-69
2023/10/01 01:40:47;;;;;;;4.73;3.50;;;14.70;99.90;;;;;;5066899;28;20413;-67
2023/10/01 01:43:17;;;;;;;6.73;3.80;;;14.70;99.90;;;;;;5057677;28;20493;-68
2023/10/01 01:45:47;;;;;;;6.07;3.50;;;14.70;99.90;;;;;;5069944;28;20418;-67
2023/10/01 01:48:25;;;;;;;5.80;3.73;;;14.70;99.90;;;;;;5054251;28;20793;-77
2023/10/01 01:50:54;;;;;;;4.70;3.90;;;14.70;99.90;;;;;;5061763;28;20516;-68
2023/10/01 01:53:20;;;;;;;5.80;3.00;;;14.70;99.90;;;;;;5061858;28;20481;-69
2023/10/01 01:55:47;;;;;;;7.33;4.10;;;14.70;99.90;;;;;;5051457;28;20424;-71
2023/10/01 01:58:15;;;;;;;11.23;3.50;;;14.70;99.90;;;;;;5062496;28;20553;-69
2023/10/01 02:03:27;;;;;;;3.87;3.47;;;14.70;99.90;;;;;;5070654;28;20877;-71
2023/10/01 02:05:52;;;;;;;6.47;3.20;;;14.70;99.90;;;;;;5059757;28;20417;-69
2023/10/01 02:08:24;;;;;;;4.13;3.40;;;14.70;99.90;;;;;;5063721;28;20485;-70
2023/10/01 02:10:52;;;;;;;6.83;3.10;;;14.70;99.90;;;;;;5067860;28;20175;-70
2023/10/01 02:13:18;;;;;;;5.00;3.27;;;14.70;99.90;;;;;;5057396;28;20413;-69
2023/10/01 02:15:47;;;;;;;7.77;3.50;;;14.70;99.90;;;;;;5056977;28;20422;-69
2023/10/01 02:18:16;;;;;;;5.07;2.70;;;14.70;99.90;;;;;;5073582;28;20683;-68
2023/10/01 02:20:52;;;;;;;6.33;3.53;;;14.60;99.90;;;;;;5059370;28;20927;-70
2023/10/01 02:23:32;;;;;;;3.33;2.93;;;14.60;99.90;;;;;;5056963;28;20410;-69
2023/10/01 02:26:00;;;;;;;9.00;3.90;;;14.70;99.90;;;;;;5064641;28;20443;-71
2023/10/01 02:28:26;;;;;;;3.47;2.50;;;14.60;99.90;;;;;;5063018;28;20460;-70
2023/10/01 02:31:00;;;;;;;3.87;3.23;;;14.60;99.90;;;;;;5067509;28;20429;-71
2023/10/01 02:33:54;;;;;;;6.50;3.70;;;14.60;99.90;;;;;;5056765;28;20414;-71
2023/10/01 02:36:12;;;;;;;5.57;3.13;;;14.60;99.90;;;;;;5064923;28;20431;-70
2023/10/01 02:38:45;;;;;;;4.33;3.57;;;14.60;99.90;;;;;;5065397;28;20974;-70
2023/10/01 02:41:15;;;;;;;7.20;3.83;;;14.60;99.90;;;;;;5039773;28;20424;-69
2023/10/01 02:43:41;;;;;;;5.23;3.90;;;14.60;99.90;;;;;;5056762;28;20413;-70
2023/10/01 02:46:12;;;;;;;7.23;3.90;;;14.60;99.90;;;;;;5065428;28;20470;-69
2023/10/01 02:48:41;;;;;;;4.33;3.90;;;14.60;99.90;;;;;;5065201;28;20471;-70
2023/10/01 02:51:14;;;;;;;5.50;3.20;;;14.60;99.90;;;;;;5057240;28;20513;-70
2023/10/01 02:53:42;;;;;;;6.90;3.23;;;14.60;99.90;;;;;;5050761;28;20421;-70
2023/10/01 02:56:16;;;;;;;9.50;3.80;;;14.50;99.90;;;;;;5065215;28;20422;-71
2023/10/01 02:58:49;;;;;;;6.83;3.97;;;14.60;99.90;;;;;;5060692;28;20885;-70
2023/10/01 03:01:15;;;;;;;4.57;2.83;;;14.50;99.90;;;;;;5069641;28;20521;-69
2023/10/01 03:03:41;;;;;;;7.43;3.57;;;14.50;99.90;;;;;;5057427;28;20492;-72
2023/10/01 03:06:09;;;;;;;5.40;3.70;;;14.50;99.90;;;;;;5065560;28;20176;-70
2023/10/01 03:11:16;;;;;;;9.00;5.13;;;14.50;99.90;;;;;;5051634;28;20422;-69
2023/10/01 03:13:46;;;;;;;5.77;3.83;;;14.50;99.90;;;;;;5068557;28;20855;-71
2023/10/01 03:16:40;;;;;;;5.47;3.57;;;14.50;99.90;;;;;;5050563;28;20468;-72
2023/10/01 03:19:12;;;;;;;6.37;3.73;;;14.50;99.90;;;;;;5050810;28;20790;-70
2023/10/01 03:24:25;;;;;;;6.27;3.67;;;14.50;99.90;;;;;;5062523;28;20454;-70
2023/10/01 03:26:51;;;;;;;5.07;4.00;;;14.50;99.90;;;;;;5066357;28;20426;-70
2023/10/01 03:29:21;;;;;;;3.83;3.20;;;14.50;99.90;;;;;;5055608;28;21031;-70
2023/10/01 03:31:53;;;;;;;4.30;3.33;;;14.50;99.90;;;;;;5067337;28;20171;-71
2023/10/01 03:34:28;;;;;;;6.47;3.20;;;14.40;99.90;;;;;;5060938;28;20424;-70
2023/10/01 03:37:01;;;;;;;5.53;2.80;;;14.40;99.90;;;;;;5058495;28;21175;-69
2023/10/01 03:39:27;;;;;;;5.60;3.30;;;14.40;99.90;;;;;;5050889;28;20415;-69
2023/10/01 03:42:10;;;;;;;8.23;3.33;;;14.50;99.90;;;;;;5059838;28;20407;-69
2023/10/01 03:47:24;;;;;;;6.87;4.10;;;14.40;99.90;;;;;;5055670;28;20442;-68
2023/10/01 03:49:57;;;;;;;4.27;2.83;;;14.40;99.90;;;;;;5062103;28;20465;-68
2023/10/01 03:52:29;;;;;;;5.50;3.87;;;14.40;99.90;;;;;;5039303;28;20734;-69
2023/10/01 03:57:52;;;;;;;4.57;3.57;;;14.40;99.90;;;;;;5068362;28;20483;-68
2023/10/01 04:00:28;;;;;;;5.90;3.27;;;14.40;99.90;;;;;;5060942;28;20427;-68
2023/10/01 04:02:54;;;;;;;4.63;3.00;;;14.40;99.90;;;;;;5057964;28;20421;-68
2023/10/01 04:05:30;;;;;;;5.60;3.27;;;14.40;99.90;;;;;;5065542;28;20502;-70
2023/10/01 04:08:04;;;;;;;9.53;4.47;;;14.40;99.90;;;;;;5052294;28;20194;-68
2023/10/01 04:10:31;;;;;;;9.17;3.77;;;14.40;99.90;;;;;;5060953;28;20429;-70
2023/10/01 04:13:11;;;;;;;7.40;3.70;;;14.40;99.90;;;;;;5066274;28;20412;-68
2023/10/01 04:15:41;;;;;;;14.67;4.40;;;14.40;99.90;;;;;;5054951;28;20500;-69
2023/10/01 04:20:48;;;;;;;6.57;3.77;;;14.40;99.90;;;;;;5049751;28;20421;-68
2023/10/01 04:23:50;;;;;;;4.97;3.77;;;14.30;99.90;;;;;;5065045;28;20406;-69
2023/10/01 04:26:13;;;;;;;4.60;3.67;;;14.30;99.90;;;;;;5051283;28;20407;-69
2023/10/01 04:28:44;;;;;;;5.47;4.23;;;14.30;99.90;;;;;;5059254;28;21007;-70
2023/10/01 04:31:18;;;;;;;6.17;4.57;;;14.30;99.90;;;;;;5067962;28;20425;-69
2023/10/01 04:33:49;;;;;;;5.87;3.43;;;14.30;99.90;;;;;;5030424;28;20417;-68
2023/10/01 04:36:19;;;;;;;6.90;4.90;;;14.30;99.90;;;;;;5063752;28;20916;-69
2023/10/01 04:38:51;;;;;;;8.20;4.37;;;14.30;99.90;;;;;;5058518;28;20427;-71
2023/10/01 04:41:18;;;;;;;8.93;5.43;;;14.30;99.90;;;;;;5052277;28;20420;-70
2023/10/01 04:44:06;;;;;;;6.03;4.47;;;14.30;99.90;;;;;;5056052;28;20417;-70
2023/10/01 04:46:37;;;;;;;8.20;4.40;;;14.30;99.90;;;;;;5060201;28;20450;-70
2023/10/01 04:49:08;;;;;;;5.20;4.70;;;14.40;99.90;;;;;;5066766;28;20446;-71
2023/10/01 04:51:47;;;;;;;6.07;5.40;;;14.40;99.90;;;;;;5058994;28;20410;-67
2023/10/01 04:54:21;;;;;;;11.40;4.30;;;14.40;99.90;;;;;;5061116;28;20406;-68
2023/10/01 04:56:50;;;;;;;4.40;4.00;;;14.40;99.90;;;;;;5062201;28;20800;-70
2023/10/01 04:59:18;;;;;;;5.30;3.47;;;14.40;99.90;;;;;;5053973;28;20449;-69
2023/10/01 05:01:47;;;;;;;6.90;5.27;;;14.40;99.90;;;;;;5041479;28;20465;-68
2023/10/01 05:04:14;;;;;;;11.60;6.00;;;14.40;99.90;;;;;;5046966;28;20454;-68
2023/10/01 05:06:43;;;;;;;6.13;3.90;;;14.50;99.90;;;;;;5067556;28;20448;-68
2023/10/01 05:09:09;;;;;;;6.73;4.60;;;14.50;99.90;;;;;;5075248;28;20824;-69
2023/10/01 05:11:35;;;;;;;5.40;3.40;;;14.50;99.90;;;;;;5058450;28;20418;-68
2023/10/01 05:14:04;;;;;;;6.40;3.90;;;14.50;99.90;;;;;;5068481;28;20504;-68
2023/10/01 05:16:32;;;;;;;4.07;3.67;;;14.50;99.90;;;;;;5047531;28;20205;-70
2023/10/01 05:19:10;;;;;;;7.30;4.23;;;14.50;99.90;;;;;;5059132;28;20528;-72
2023/10/01 05:21:49;;;;;;;6.43;4.13;;;14.50;99.90;;;;;;5071645;28;20414;-71
2023/10/01 05:24:34;;;;;;;7.40;3.87;;;14.50;99.90;;;;;;5063794;28;20795;-71
2023/10/01 05:27:08;;;;;;;6.27;3.80;;;14.60;99.90;;;;;;5047243;28;20828;-70
2023/10/01 05:29:34;;;;;;;5.83;4.60;;;14.60;99.90;;;;;;5058065;28;20470;-69
2023/10/01 05:32:02;;;;;;;4.50;4.10;;;14.60;99.90;;;;;;5067137;28;21012;-70
2023/10/01 05:34:28;;;;;;;8.30;4.20;;;14.60;99.90;;;;;;5065155;28;20496;-69
2023/10/01 05:37:08;;;;;;;6.90;4.57;;;14.60;99.90;;;;;;5060574;28;20408;-71
2023/10/01 05:39:55;;;;;;;6.63;3.80;;;14.70;99.90;;;;;;5071235;28;20417;-69
2023/10/01 05:42:28;;;;;;;6.70;4.30;;;14.70;99.90;;;;;;5064452;28;20417;-68
2023/10/01 05:44:59;;;;;;;5.90;3.93;;;14.70;99.90;;;;;;5060528;28;20937;-70
2023/10/01 05:47:41;;;;;;;6.83;3.50;;;14.70;99.90;;;;;;5071231;28;20426;-70
2023/10/01 05:50:11;;;;;;;4.40;4.03;;;14.70;99.90;;;;;;5065542;28;20461;-70
2023/10/01 05:52:40;;;;;;;4.87;3.67;;;14.80;99.90;;;;;;5061700;28;20412;-70
2023/10/01 05:55:12;;;;;;;9.00;3.63;;;14.80;99.90;;;;;;5058499;28;20412;-70
2023/10/01 05:57:38;;;;;;;4.10;3.47;;;14.80;99.90;;;;;;5067828;28;20496;-70
2023/10/01 06:00:16;;;;;;;11.40;4.27;;;14.90;99.90;;;;;;5046587;28;20405;-72
2023/10/01 06:02:48;;;;;;;5.07;3.93;;;14.90;99.90;;;;;;5048596;28;20418;-68
2023/10/01 06:05:38;;;;;;;4.80;3.60;;;15.10;99.90;;;;;;5057086;28;20430;-68
2023/10/01 06:08:14;;;;;;;6.20;4.13;;;15.10;99.90;;;;;;5055608;28;20439;-67
2023/10/01 06:11:04;;;;;;;6.47;3.70;;;15.20;99.90;;;;;;5061761;28;20416;-69
2023/10/01 06:13:31;;;;;;;5.70;3.93;;;15.20;99.90;;;;;;5052572;28;20472;-68
2023/10/01 06:15:58;;;;;;;5.97;3.83;;;15.20;99.90;;;;;;5042547;28;20406;-68
2023/10/01 06:18:26;;;;;;;3.60;3.30;;;15.30;99.90;;;;;;5059882;28;20433;-69
2023/10/01 06:20:53;;;;;;;5.47;3.90;;;15.30;99.90;;;;;;5068129;28;20816;-70
2023/10/01 06:23:20;;;;;;;8.53;3.40;;;15.50;99.90;;;;;;5056638;28;20791;-68
2023/10/01 06:25:53;;;;;;;7.20;4.30;;;15.50;99.90;;;;;;5069002;28;20420;-69
2023/10/01 06:28:20;;;;;;;8.13;4.10;;;15.50;99.90;;;;;;5047009;28;20436;-71
2023/10/01 06:30:48;;;;;;;6.17;3.53;;;15.40;99.90;;;;;;5060380;28;20452;-72
2023/10/01 06:33:26;;;;;;;4.93;3.77;;;15.60;99.90;;;;;;5060890;28;20458;-69
2023/10/01 06:38:38;;;;;;;7.77;3.63;;;16.00;99.90;;;;;;5061622;28;20884;-71
2023/10/01 06:41:06;;;;;;;5.43;4.33;;;16.00;99.90;;;;;;5052864;28;20818;-73
2023/10/01 06:43:32;;;;;;;4.63;3.57;;;16.10;99.90;;;;;;5064120;28;20422;-73
2023/10/01 06:45:59;;;;;;;8.73;3.70;;;16.20;99.90;;;;;;5067032;28;20854;-70
2023/10/01 06:48:27;;;;;;;7.97;2.70;;;16.20;99.90;;;;;;5063363;28;20521;-71
2023/10/01 06:50:53;;;;;;;6.20;4.00;;;16.40;99.90;;;;;;5059335;28;20451;-72
2023/10/01 06:53:43;;;;;;;6.70;3.00;;;16.40;99.90;;;;;;5059717;28;20616;-74
2023/10/01 06:56:06;;;;;;;8.70;3.33;;;16.60;99.90;;;;;;5059745;28;20462;-69
2023/10/01 06:58:32;;;;;;;5.47;3.30;;;16.50;99.90;;;;;;5037529;28;21202;-69
2023/10/01 07:00:59;;;;;;;6.60;3.90;;;16.40;99.90;;;;;;5063438;28;20408;-71
2023/10/01 07:03:30;;;;;;;9.50;3.77;;;16.50;99.90;;;;;;5069633;28;20462;-69
2023/10/01 07:05:59;;;;;;;4.57;4.10;;;16.40;99.90;;;;;;5042281;28;20506;-68
2023/10/01 07:08:43;;;;;;;7.57;3.77;;;16.60;99.90;;;;;;5062632;28;20495;-73
2023/10/01 07:11:11;;;;;;;4.97;3.00;;;16.40;99.90;;;;;;5055026;28;20420;-71
2023/10/01 07:13:40;;;;;;;6.13;2.93;;;16.50;99.90;;;;;;5047461;28;20621;-70
2023/10/01 07:16:09;;;;;;;5.30;3.00;;;16.60;99.90;;;;;;5053625;28;20916;-69
2023/10/01 07:18:37;;;;;;;3.37;3.00;;;16.90;99.90;;;;;;5060533;28;20437;-71
2023/10/01 07:21:16;;;;;;;4.83;2.90;;;17.30;99.90;;;;;;5068110;28;20553;-70
2023/10/01 07:23:42;;;;;;;4.47;2.53;;;17.80;99.90;;;;;;5054736;28;20439;-70
2023/10/01 07:26:12;;;;;;;8.20;3.40;;;17.70;99.90;;;;;;5071023;28;20427;-70
2023/10/01 07:28:41;;;;;;;4.37;2.93;;;17.60;99.90;;;;;;5061101;28;20478;-72
2023/10/01 07:31:07;;;;;;;4.83;3.13;;;18.00;99.90;;;;;;5059897;28;20443;-70
2023/10/01 07:33:33;;;;;;;5.50;3.37;;;18.40;99.90;;;;;;5068872;28;20466;-71
2023/10/01 07:35:59;;;;;;;3.80;3.17;;;17.90;99.90;;;;;;5059051;28;20178;-69
2023/10/01 07:38:26;;;;;;;4.07;2.50;;;18.00;99.90;;;;;;5059280;28;20429;-71
2023/10/01 07:40:57;;;;;;;8.20;3.30;;;17.80;99.90;;;;;;5042838;28;20170;-69
2023/10/01 07:43:26;;;;;;;5.87;3.80;;;18.20;99.90;;;;;;5040108;28;20527;-69
2023/10/01 07:45:55;;;;;;;4.67;3.13;;;18.70;99.90;;;;;;5052343;28;20826;-70
2023/10/01 07:48:28;;;;;;;7.80;3.80;;;18.50;99.90;;;;;;5049478;28;20486;-71
2023/10/01 07:50:58;;;;;;;6.33;4.30;;;19.30;99.90;;;;;;5053886;28;20410;-70
2023/10/01 07:53:32;;;;;;;6.63;4.00;;;19.90;99.90;;;;;;5058878;28;20546;-69
2023/10/01 07:56:07;;;;;;;5.00;3.33;;;19.60;99.90;;;;;;5042080;28;20471;-70
2023/10/01 07:58:45;;;;;;;7.30;5.77;;;19.30;99.90;;;;;;5050141;28;20552;-69
2023/10/01 08:03:56;;;;;;;8.70;3.10;;;21.30;99.90;;;;;;5042369;28;20392;-70
2023/10/01 08:06:31;;;;;;;5.30;2.90;;;21.70;99.90;;;;;;5058618;28;20420;-69
2023/10/01 08:08:59;;;;;;;4.63;2.83;;;20.60;99.90;;;;;;5049730;28;20194;-69
2023/10/01 08:11:58;;;;;;;4.53;3.37;;;20.00;99.90;;;;;;5039307;28;20414;-71
2023/10/01 08:14:26;;;;;;;5.97;3.47;;;19.80;99.90;;;;;;5040410;28;20421;-70
2023/10/01 08:16:56;;;;;;;5.40;3.47;;;20.60;99.90;;;;;;5044287;28;20432;-70
2023/10/01 08:19:22;;;;;;;8.17;3.47;;;20.60;99.90;;;;;;5056143;28;20488;-70
2023/10/01 08:21:53;;;;;;;13.70;12.27;;;20.50;99.90;;;;;;5050639;28;20421;-69
2023/10/01 08:24:20;;;;;;;5.80;3.70;;;20.00;99.90;;;;;;5054159;28;20184;-69
2023/10/01 08:26:57;;;;;;;6.83;3.70;;;19.50;99.90;;;;;;5046375;28;20423;-71
2023/10/01 08:29:59;;;;;;;4.87;3.33;;;19.40;99.90;;;;;;5028368;28;20545;-70
2023/10/01 08:32:14;;;;;;;8.23;3.17;;;19.30;99.90;;;;;;5062368;28;20409;-69
2023/10/01 08:37:24;;;;;;;6.13;2.77;;;19.80;99.90;;;;;;5055248;28;20432;-70
2023/10/01 08:39:53;;;;;;;5.27;3.73;;;19.10;99.90;;;;;;5057020;28;20943;-70
2023/10/01 08:42:19;;;;;;;9.60;3.80;;;18.90;99.90;;;;;;5060500;28;20695;-70
2023/10/01 08:44:54;;;;;;;6.37;2.83;;;18.70;99.90;;;;;;5056493;28;20419;-68
2023/10/01 08:47:31;;;;;;;5.27;2.80;;;18.70;99.90;;;;;;5049959;28;20505;-68
2023/10/01 08:52:55;;;;;;;6.80;3.80;;;18.70;99.90;;;;;;5071337;28;20499;-69
2023/10/01 08:58:15;;;;;;;10.87;3.20;;;19.00;99.90;;;;;;5046674;28;20445;-71
2023/10/01 09:01:10;;;;;;;3.10;2.80;;;18.70;99.90;;;;;;5044436;28;20413;-71
2023/10/01 09:03:36;;;;;;;4.40;3.30;;;18.50;99.90;;;;;;5039460;28;20623;-68
2023/10/01 09:06:24;;;;;;;4.90;3.03;;;18.40;99.90;;;;;;5036875;28;20415;-68
2023/10/01 09:08:54;;;;;;;6.33;3.80;;;18.70;99.90;;;;;;5057699;28;20457;-68
2023/10/01 09:11:32;;;;;;;7.13;3.23;;;19.00;99.90;;;;;;5052272;28;20448;-70
2023/10/01 09:13:58;;;;;;;4.80;3.50;;;18.70;99.90;;;;;;5061283;28;20906;-70
2023/10/01 09:16:45;;;;;;;4.77;3.33;;;18.80;99.90;;;;;;5061227;28;20449;-71
2023/10/01 09:19:31;;;;;;;5.70;3.70;;;18.80;99.90;;;;;;5029274;28;20450;-76
2023/10/01 09:22:09;;;;;;;4.03;3.50;;;18.90;99.90;;;;;;5046804;28;20480;-73
2023/10/01 09:24:38;;;;;;;5.10;3.13;;;18.60;99.90;;;;;;5044885;28;20486;-77
2023/10/01 09:27:21;;;;;;;3.50;3.00;;;18.70;99.90;;;;;;5040607;28;20422;-69
2023/10/01 09:30:23;;;;;;;6.00;3.03;;;18.70;99.90;;;;;;5035756;28;20767;-75
2023/10/01 09:32:51;;;;;;;9.33;5.40;;;19.20;99.90;;;;;;5039332;28;20406;-73
2023/10/01 09:35:39;;;;;;;5.37;3.50;;;18.90;99.90;;;;;;5044526;28;20452;-70
2023/10/01 09:38:13;;;;;;;5.67;3.30;;;18.80;99.90;;;;;;5045485;28;20430;-71
2023/10/01 09:40:43;;;;;;;12.03;8.50;;;18.80;99.90;;;;;;5061766;28;20487;-70
2023/10/01 09:43:19;;;;;;;6.63;3.03;;;18.80;99.90;;;;;;5049058;28;20412;-70
2023/10/01 09:45:46;;;;;;;9.50;3.53;;;19.50;99.90;;;;;;5046868;28;20767;-74
2023/10/01 09:51:15;;;;;;;6.97;2.83;;;19.30;99.90;;;;;;5008121;28;20453;-67
2023/10/01 09:53:51;;;;;;;5.10;3.37;;;19.80;99.90;;;;;;5043003;28;20410;-69
2023/10/01 09:56:46;;;;;;;7.37;4.63;;;20.10;99.90;;;;;;5043367;28;20412;-68
2023/10/01 09:59:13;;;;;;;9.33;4.20;;;19.90;99.90;;;;;;5048310;28;20541;-70
2023/10/01 10:01:40;;;;;;;5.33;3.30;;;19.70;99.90;;;;;;5050897;28;20452;-69
2023/10/01 10:04:08;;;;;;;7.20;3.67;;;19.60;99.90;;;;;;5038261;28;20416;-67
2023/10/01 10:06:35;;;;;;;5.63;3.00;;;19.60;99.90;;;;;;5020047;28;20429;-68
2023/10/01 10:09:05;;;;;;;4.43;3.70;;;19.40;99.90;;;;;;5045135;28;20520;-68
2023/10/01 10:11:39;;;;;;;6.07;4.03;;;19.50;99.90;;;;;;5070566;28;20421;-68
2023/10/01 10:14:24;;;;;;;8.40;5.60;;;19.90;99.90;;;;;;5054666;28;20412;-67
2023/10/01 10:17:07;;;;;;;7.03;3.43;;;19.80;99.90;;;;;;5065956;28;20445;-69
2023/10/01 10:19:53;;;;;;;5.43;3.33;;;20.30;99.90;;;;;;5070664;28;20413;-67
2023/10/01 10:22:19;;;;;;;5.63;4.40;;;20.20;99.90;;;;;;5062480;28;20415;-67
2023/10/01 10:24:46;;;;;;;4.87;3.73;;;19.90;99.90;;;;;;5060992;28;20925;-68
2023/10/01 10:27:24;;;;;;;5.60;3.63;;;19.80;99.90;;;;;;5070742;28;20227;-68
2023/10/01 10:29:56;;;;;;;4.83;3.97;;;19.80;99.90;;;;;;5056880;28;21023;-68
2023/10/01 10:32:30;;;;;;;9.37;3.77;;;20.00;99.90;;;;;;5064223;28;20474;-69
2023/10/01 10:35:04;;;;;;;8.10;3.90;;;19.90;99.90;;;;;;5064242;28;20410;-68
2023/10/01 10:37:36;;;;;;;6.10;3.77;;;19.70;99.90;;;;;;5052085;28;20435;-68
2023/10/01 10:40:04;;;;;;;8.20;3.83;;;19.70;99.90;;;;;;5060602;28;20831;-68
2023/10/01 10:42:33;;;;;;;5.80;4.07;;;19.70;99.90;;;;;;5062470;28;20409;-69
2023/10/01 10:47:58;;;;;;;5.03;3.10;;;19.70;99.90;;;;;;5056776;28;20443;-69
2023/10/01 10:51:02;;;;;;;4.00;3.70;;;19.80;99.90;;;;;;5049673;28;20491;-69
2023/10/01 10:53:39;;;;;;;6.80;4.73;;;19.80;99.90;;;;;;5052566;28;20417;-69
2023/10/01 10:56:10;;;;;;;7.67;4.40;;;20.00;99.90;;;;;;5051194;28;20427;-69
2023/10/01 10:58:40;;;;;;;15.80;8.93;;;20.10;99.90;;;;;;5065164;28;20452;-68
2023/10/01 11:01:16;;;;;;;8.83;5.83;;;20.30;99.90;;;;;;5056367;28;20415;-68
2023/10/01 11:03:43;;;;;;;6.47;5.60;;;20.60;99.90;;;;;;5033171;28;20506;-68
2023/10/01 11:06:46;;;;;;;4.90;4.40;;;20.60;99.90;;;;;;5043534;28;21016;-67
2023/10/01 11:09:31;;;;;;;7.70;4.57;;;20.70;99.90;;;;;;5057045;28;20467;-71
2023/10/01 11:12:04;;;;;;;8.47;4.93;;;20.70;99.90;;;;;;5061726;28;20413;-70
2023/10/01 11:14:30;;;;;;;5.97;4.17;;;20.70;99.90;;;;;;5073087;28;20565;-71
2023/10/01 11:16:56;;;;;;;4.20;3.47;;;20.60;99.90;;;;;;5060847;28;20416;-69
2023/10/01 11:19:28;;;;;;;8.00;4.90;;;20.80;99.90;;;;;;5059402;28;20889;-68
2023/10/01 11:22:00;;;;;;;5.37;4.60;;;20.70;99.90;;;;;;5039215;28;20196;-68
2023/10/01 11:24:33;;;;;;;5.80;4.60;;;20.60;99.90;;;;;;5017670;28;20427;-69
2023/10/01 11:27:20;;;;;;;5.10;4.60;;;20.50;99.90;;;;;;5068974;28;20430;-70
2023/10/01 11:30:21;;;;;;;5.90;4.10;;;20.70;99.90;;;;;;5057678;28;20458;-69
2023/10/01 11:33:04;;;;;;;6.53;4.20;;;20.90;99.90;;;;;;5065709;28;20446;-69
2023/10/01 11:35:32;;;;;;;5.57;4.87;;;20.90;99.90;;;;;;5040039;28;20922;-68
2023/10/01 11:38:18;;;;;;;5.10;4.40;;;20.50;99.90;;;;;;5047183;28;20439;-67
2023/10/01 11:43:58;;;;;;;8.37;5.00;;;21.20;99.90;;;;;;5054419;28;20419;-69
2023/10/01 11:46:57;;;;;;;8.20;5.20;;;21.40;99.90;;;;;;5020405;28;21094;-69
2023/10/01 11:49:34;;;;;;;6.70;4.40;;;21.30;99.90;;;;;;5047948;28;20455;-69
2023/10/01 11:52:21;;;;;;;8.47;4.03;;;21.40;99.90;;;;;;5058922;28;20975;-68
2023/10/01 11:54:53;;;;;;;5.30;3.90;;;21.50;99.90;;;;;;5051848;28;20427;-70
2023/10/01 11:57:31;;;;;;;6.70;4.27;;;21.90;99.90;;;;;;5067025;28;20494;-69
2023/10/01 11:59:58;;;;;;;7.83;3.67;;;22.10;99.90;;;;;;5058410;28;20549;-69
2023/10/01 12:02:26;;;;;;;5.53;3.93;;;22.10;99.90;;;;;;5042064;28;20429;-71
2023/10/01 12:04:59;;;;;;;8.33;3.90;;;21.60;99.90;;;;;;5063990;28;20463;-69
2023/10/01 12:07:39;;;;;;;10.10;4.23;;;21.60;99.90;;;;;;5048697;28;20816;-70
2023/10/01 12:10:07;;;;;;;7.60;4.17;;;21.80;99.90;;;;;;5056006;28;21003;-70
2023/10/01 12:12:39;;;;;;;7.53;4.40;;;21.70;99.90;;;;;;5063766;28;20419;-71
2023/10/01 12:17:54;;;;;;;6.67;3.30;;;21.10;99.90;;;;;;5065078;28;20438;-70
2023/10/01 12:20:23;;;;;;;13.00;3.73;;;21.10;99.90;;;;;;5061816;28;20453;-70
2023/10/01 12:23:11;;;;;;;6.17;4.50;;;21.20;99.90;;;;;;5064539;28;20427;-70
2023/10/01 12:25:51;;;;;;;6.77;3.40;;;21.10;99.90;;;;;;5026609;28;20486;-70
2023/10/01 12:28:26;;;;;;;5.83;3.97;;;21.10;99.90;;;;;;5052746;28;20850;-71
2023/10/01 12:31:08;;;;;;;4.83;3.50;;;21.00;99.90;;;;;;5048552;28;20432;-68
2023/10/01 12:33:40;;;;;;;3.40;2.70;;;21.10;99.90;;;;;;5056027;28;20439;-68
2023/10/01 12:39:03;;;;;;;4.83;3.40;;;21.30;99.90;;;;;;5052367;28;20435;-69
2023/10/01 12:41:29;;;;;;;5.50;3.77;;;21.20;99.90;;;;;;5042770;28;20428;-68
2023/10/01 12:44:14;;;;;;;6.43;3.33;;;21.40;99.90;;;;;;5048178;28;20783;-69
2023/10/01 12:46:51;;;;;;;4.40;3.17;;;21.40;99.90;;;;;;5048073;28;20180;-67
2023/10/01 12:49:21;;;;;;;8.10;3.63;;;21.10;99.90;;;;;;5052654;28;20460;-69
2023/10/01 12:51:53;;;;;;;8.00;3.83;;;20.80;99.90;;;;;;5052429;28;21029;-70
2023/10/01 12:54:25;;;;;;;5.40;3.67;;;21.00;99.90;;;;;;5057514;28;20427;-70
2023/10/01 12:57:18;;;;;;;6.67;2.63;;;20.70;99.90;;;;;;5048093;28;20428;-68
2023/10/01 12:59:44;;;;;;;5.70;4.70;;;20.80;99.90;;;;;;5035556;28;20465;-72
2023/10/01 13:07:42;;;;;;;4.57;2.53;;;20.80;99.90;;;;;;5053275;28;20439;-69
2023/10/01 13:10:08;;;;;;;6.87;3.90;;;20.80;99.90;;;;;;5067700;28;20479;-69
2023/10/01 13:12:39;;;;;;;4.30;3.43;;;20.50;99.90;;;;;;5028446;28;20811;-69
2023/10/01 13:15:15;;;;;;;6.57;3.73;;;20.60;99.90;;;;;;5062172;28;20434;-68
2023/10/01 13:17:44;;;;;;;5.50;3.30;;;20.90;99.90;;;;;;5049280;28;20446;-70
2023/10/01 13:20:24;;;;;;;5.30;3.20;;;20.80;99.90;;;;;;5052659;28;20435;-70
2023/10/01 13:22:59;;;;;;;4.83;2.60;;;20.70;99.90;;;;;;5069092;28;20441;-69
2023/10/01 13:25:28;;;;;;;6.50;4.07;;;20.50;99.90;;;;;;5068057;28;20911;-68
2023/10/01 13:28:07;;;;;;;4.90;2.63;;;20.60;99.90;;;;;;5050718;28;20447;-72
2023/10/01 13:33:23;;;;;;;4.40;3.10;;;20.50;99.90;;;;;;5061244;28;20913;-69
2023/10/01 13:35:56;;;;;;;7.97;3.40;;;20.70;99.90;;;;;;5039926;28;20565;-70
2023/10/01 13:39:13;;;;;;;3.83;3.50;;;20.60;99.90;;;;;;5055339;28;20454;-73
2023/10/01 14:08:45;;;;;;;9.13;2.97;;;20.60;99.90;;;;;;5055435;28;20503;-69
2023/10/01 14:11:26;;;;;;;3.07;2.77;;;20.60;99.90;;;;;;5045585;28;20424;-68
2023/10/01 14:13:53;;;;;;;4.47;3.13;;;20.60;99.90;;;;;;5056316;28;20176;-68
2023/10/01 14:16:22;;;;;;;5.63;3.00;;;20.40;99.90;;;;;;5070593;28;20407;-72
2023/10/01 14:18:55;;;;;;;6.00;2.97;;;20.30;99.90;;;;;;5054692;28;20957;-70
2023/10/01 14:21:29;;;;;;;3.47;2.07;;;20.40;99.90;;;;;;5061224;28;20431;-71
2023/10/01 14:26:43;;;;;;;4.87;2.93;;;20.40;99.90;;;;;;5054137;28;20409;-71
2023/10/01 14:29:10;;;;;;;5.93;3.00;;;20.10;99.90;;;;;;5048955;28;20468;-70
2023/10/01 14:31:41;;;;;;;3.93;2.50;;;20.20;99.90;;;;;;5052110;28;20781;-70
2023/10/01 14:34:08;;;;;;;3.67;2.50;;;20.30;99.90;;;;;;5054902;28;20415;-72
2023/10/01 14:36:44;;;;;;;5.53;3.37;;;20.10;99.90;;;;;;5055741;28;20425;-69